CheckWX is a tool to help pilots better visualize weather data.  It is not intended as a substitute for an official pre-flight weather briefing.

02:56:17 UTC

KFFT METAR
Capital City Airport
Frankfort, Kentucky, USA
Current

1 hour ago

KFFT 230153Z AUTO 36006KT 10SM BKN075 OVC090 22/18 A2999 RMK AO2 SLP148 T02170183
Observed
Jul-23 @ 01:53 UTC
Wind
  • 360° at 6 KTS
Visibility
10 SM
Flight Rules
VFR
Cloud Levels
  • Broken at 7,500' AGL
  • Overcast at 9,000' AGL
Temperature
22°C / 72°F
Dewpoint
18°C / 64°F
Humidity
78%
Altimeter
29.99" Hg
Pressure
1015.62 hPa
Previous

1 hour ago

KFFT 230128Z AUTO 35006KT 10SM FEW014 FEW022 OVC070 22/19 A2998 RMK AO2 T02220189
Observed
Jul-23 @ 01:28 UTC
Wind
  • 350° at 6 KTS
Visibility
10 SM
Flight Rules
VFR
Cloud Levels
  • Few at 1,400' AGL
  • Few at 2,200' AGL
  • Overcast at 7,000' AGL
Temperature
22°C / 72°F
Dewpoint
19°C / 66°F
Humidity
83%
Altimeter
29.98" Hg
Pressure
1015.22 hPa
Previous

2 hours ago

KFFT 230106Z AUTO 35005KT 10SM SCT017 BKN022 OVC065 23/19 A2998 RMK AO2 T02280194
Observed
Jul-23 @ 01:06 UTC
Wind
  • 350° at 5 KTS
Visibility
10 SM
Flight Rules
MVFR
Cloud Levels
  • Scattered at 1,700' AGL
  • Broken at 2,200' AGL
  • Overcast at 6,500' AGL
Temperature
23°C / 73°F
Dewpoint
19°C / 66°F
Humidity
78%
Altimeter
29.98" Hg
Pressure
1015.22 hPa